Time;durP1;ratioP1;P1;durP2;ratioP2;P2;SDS_P1;SDS_P2;PMS_P1;PMS_P2;Temp;Humidity;BMP_temperature;BMP_pressure;BME280_temperature;BME280_humidity;BME280_pressure;Samples;Min_cycle;Max_cycle;Signal;HPM_P1;HPM_P2
2023/08/01 00:00:29;;;;;;;1.20;1.00;;;25.60;50.30;;;;;;5077157;28;20020;-68
2023/08/01 00:02:55;;;;;;;2.33;1.10;;;25.60;50.30;;;;;;5078508;28;20029;-68
2023/08/01 00:05:20;;;;;;;1.67;1.20;;;25.60;50.30;;;;;;5077832;28;20025;-67
2023/08/01 00:07:46;;;;;;;1.55;1.10;;;25.70;51.00;;;;;;5076796;28;20024;-67
2023/08/01 00:10:12;;;;;;;1.90;1.10;;;25.60;50.40;;;;;;5077201;28;20033;-68
2023/08/01 00:12:37;;;;;;;1.20;1.10;;;25.60;50.40;;;;;;5079796;28;20107;-68
2023/08/01 00:15:03;;;;;;;1.70;1.00;;;25.60;50.40;;;;;;5076436;28;20031;-69
2023/08/01 00:17:29;;;;;;;1.83;1.10;;;25.60;50.40;;;;;;5074992;28;20064;-67
2023/08/01 00:19:55;;;;;;;1.77;1.20;;;25.60;50.40;;;;;;5077517;28;20052;-68
2023/08/01 00:22:21;;;;;;;1.83;1.20;;;25.60;50.40;;;;;;5077010;28;20531;-67
2023/08/01 00:24:47;;;;;;;1.70;1.17;;;25.60;50.40;;;;;;5077789;28;20342;-67
2023/08/01 00:27:13;;;;;;;1.70;1.10;;;25.60;50.40;;;;;;5076209;28;20032;-66
2023/08/01 00:29:39;;;;;;;1.50;1.10;;;25.60;50.40;;;;;;5076663;28;20036;-67
2023/08/01 00:32:05;;;;;;;1.70;1.17;;;25.50;50.40;;;;;;5077714;28;20036;-67
2023/08/01 00:34:31;;;;;;;1.27;1.00;;;25.60;50.40;;;;;;5077755;28;20036;-67
2023/08/01 00:36:57;;;;;;;1.48;1.02;;;25.50;50.40;;;;;;5078432;28;20090;-67
2023/08/01 00:39:23;;;;;;;1.55;1.10;;;25.50;50.40;;;;;;5063187;28;20031;-68
2023/08/01 00:41:48;;;;;;;1.65;1.10;;;25.50;50.40;;;;;;5075307;28;20100;-68
2023/08/01 00:44:14;;;;;;;1.83;1.23;;;25.50;50.40;;;;;;5078550;28;20472;-68
2023/08/01 00:46:40;;;;;;;1.75;1.17;;;25.50;50.40;;;;;;5078659;28;20068;-68
2023/08/01 00:49:05;;;;;;;1.60;1.05;;;25.50;50.40;;;;;;5077646;28;20032;-68
2023/08/01 00:51:32;;;;;;;1.38;1.10;;;25.50;50.40;;;;;;5077239;28;20499;-62
2023/08/01 00:53:58;;;;;;;1.38;1.10;;;25.50;50.40;;;;;;5060555;28;20501;-62
2023/08/01 00:56:24;;;;;;;1.33;1.02;;;25.50;50.40;;;;;;5080283;28;20028;-64
2023/08/01 00:58:49;;;;;;;1.67;1.10;;;25.50;50.40;;;;;;5063624;28;20156;-64
2023/08/01 01:01:15;;;;;;;1.70;1.20;;;25.50;50.40;;;;;;5077966;28;20484;-65
2023/08/01 01:03:41;;;;;;;1.70;1.30;;;25.50;51.00;;;;;;5076717;28;20028;-63
2023/08/01 01:06:15;;;;;;;1.95;1.10;;;25.50;50.50;;;;;;5063258;28;20025;-65
2023/08/01 01:08:41;;;;;;;2.00;1.35;;;25.50;50.40;;;;;;5078571;28;20483;-66
2023/08/01 01:11:07;;;;;;;1.98;1.20;;;25.40;50.40;;;;;;5077995;28;20020;-64
2023/08/01 01:13:33;;;;;;;1.50;1.10;;;25.50;50.40;;;;;;5063994;28;20032;-62
2023/08/01 01:15:59;;;;;;;1.60;1.05;;;25.50;50.40;;;;;;5064993;28;20028;-61
2023/08/01 01:18:24;;;;;;;1.58;1.00;;;25.50;50.40;;;;;;5071574;28;20388;-64
2023/08/01 01:20:50;;;;;;;1.63;1.10;;;25.40;50.40;;;;;;5084048;28;20020;-63
2023/08/01 01:23:17;;;;;;;1.50;1.00;;;25.50;50.40;;;;;;5080521;28;20063;-64
2023/08/01 01:25:44;;;;;;;1.60;1.10;;;25.40;50.90;;;;;;5079398;28;20070;-62
2023/08/01 01:28:11;;;;;;;1.33;1.05;;;25.40;50.40;;;;;;5081700;28;20464;-62
2023/08/01 01:30:37;;;;;;;1.25;0.98;;;25.40;50.40;;;;;;5080951;28;20029;-63
2023/08/01 01:33:03;;;;;;;1.38;1.02;;;25.40;50.40;;;;;;5081054;28;20472;-63
2023/08/01 01:35:29;;;;;;;1.42;1.00;;;25.40;50.40;;;;;;5062112;28;20094;-62
2023/08/01 01:37:55;;;;;;;1.67;1.10;;;25.40;50.40;;;;;;5065421;28;20028;-63
2023/08/01 01:40:21;;;;;;;1.42;1.05;;;25.40;50.90;;;;;;5079631;28;20024;-65
2023/08/01 01:42:48;;;;;;;1.77;1.30;;;25.40;50.40;;;;;;5068869;28;20456;-69
2023/08/01 01:45:14;;;;;;;1.45;1.08;;;25.40;50.40;;;;;;5081222;28;20032;-68
2023/08/01 01:47:39;;;;;;;1.35;1.17;;;25.40;50.40;;;;;;5082203;28;20092;-69
2023/08/01 01:50:05;;;;;;;2.63;1.20;;;25.40;50.40;;;;;;5081689;28;20060;-69
2023/08/01 01:52:32;;;;;;;1.98;1.10;;;25.40;50.40;;;;;;5078904;28;20507;-68
2023/08/01 01:54:58;;;;;;;1.88;1.20;;;25.40;50.50;;;;;;5080841;28;20032;-68
2023/08/01 01:57:24;;;;;;;1.30;1.10;;;25.40;50.40;;;;;;5082464;28;20506;-70
2023/08/01 01:59:49;;;;;;;1.30;1.00;;;25.40;50.50;;;;;;5065793;28;20415;-68
2023/08/01 02:02:15;;;;;;;1.10;1.00;;;25.40;50.50;;;;;;5078895;28;20066;-68
2023/08/01 02:04:40;;;;;;;1.15;0.95;;;25.40;50.50;;;;;;5081539;28;20052;-68
2023/08/01 02:07:06;;;;;;;1.38;0.90;;;25.40;50.50;;;;;;5081444;28;20032;-68
2023/08/01 02:09:32;;;;;;;1.50;1.10;;;25.40;50.50;;;;;;5078557;28;20035;-69
2023/08/01 02:11:57;;;;;;;1.80;1.10;;;25.40;50.50;;;;;;5081102;28;20166;-68
2023/08/01 02:14:23;;;;;;;1.60;1.10;;;25.40;50.50;;;;;;5078546;28;20423;-69
2023/08/01 02:16:48;;;;;;;1.40;1.15;;;25.40;50.60;;;;;;5080288;28;20063;-70
2023/08/01 02:19:14;;;;;;;1.50;1.08;;;25.40;50.50;;;;;;5081372;28;20099;-70
2023/08/01 02:21:39;;;;;;;1.90;1.20;;;25.40;50.60;;;;;;5080135;28;20476;-68
2023/08/01 02:24:05;;;;;;;1.30;0.90;;;25.40;50.50;;;;;;5078362;28;20037;-69
2023/08/01 02:26:31;;;;;;;1.25;1.00;;;25.40;50.60;;;;;;5078810;28;20472;-69
2023/08/01 02:28:56;;;;;;;0.98;0.85;;;25.40;50.50;;;;;;5082212;28;20091;-69
2023/08/01 02:31:22;;;;;;;1.42;1.02;;;25.40;50.50;;;;;;5081724;28;20020;-69
2023/08/01 02:33:48;;;;;;;1.40;1.10;;;25.30;50.40;;;;;;5082154;28;20122;-68
2023/08/01 02:36:13;;;;;;;1.70;1.20;;;25.30;50.50;;;;;;5080484;28;20020;-69
2023/08/01 02:38:39;;;;;;;1.52;1.00;;;25.30;50.50;;;;;;5078548;28;20096;-68
2023/08/01 02:41:05;;;;;;;1.40;1.00;;;25.30;50.50;;;;;;5080620;28;20024;-68
2023/08/01 02:43:30;;;;;;;1.65;1.10;;;25.30;50.50;;;;;;5080055;28;20024;-70
2023/08/01 02:45:56;;;;;;;1.42;1.10;;;25.30;50.50;;;;;;5078517;28;20828;-70
2023/08/01 02:48:21;;;;;;;2.38;1.20;;;25.30;50.50;;;;;;5079359;28;20039;-68
2023/08/01 02:50:47;;;;;;;1.40;1.10;;;25.30;50.50;;;;;;5079797;28;20035;-67
2023/08/01 02:53:13;;;;;;;1.55;1.10;;;25.30;50.50;;;;;;5077112;28;20499;-68
2023/08/01 02:55:39;;;;;;;1.27;1.00;;;25.30;50.50;;;;;;5081049;28;20039;-68
2023/08/01 02:58:04;;;;;;;1.30;0.93;;;25.30;50.50;;;;;;5077931;28;20036;-70
2023/08/01 03:00:31;;;;;;;1.52;1.00;;;25.30;50.50;;;;;;5078814;28;20029;-68
2023/08/01 03:02:57;;;;;;;1.52;1.00;;;25.30;50.50;;;;;;5079755;28;20024;-71
2023/08/01 03:05:23;;;;;;;1.00;0.80;;;25.30;50.50;;;;;;5079051;28;20987;-69
2023/08/01 03:07:48;;;;;;;1.38;1.13;;;25.30;50.50;;;;;;5077689;28;20484;-70
2023/08/01 03:10:14;;;;;;;0.98;0.80;;;25.30;51.00;;;;;;5080543;28;20383;-69
2023/08/01 03:12:39;;;;;;;1.20;0.98;;;25.30;50.50;;;;;;5080495;28;20028;-70
2023/08/01 03:15:08;;;;;;;1.10;0.93;;;25.30;50.50;;;;;;5079052;28;20028;-70
2023/08/01 03:17:34;;;;;;;1.60;1.10;;;25.30;50.50;;;;;;5077196;28;20032;-70
2023/08/01 03:19:59;;;;;;;1.30;1.02;;;25.30;50.50;;;;;;5078246;28;20028;-69
2023/08/01 03:22:25;;;;;;;1.23;0.98;;;25.20;50.40;;;;;;5079208;28;20104;-69
2023/08/01 03:24:51;;;;;;;1.63;0.98;;;25.20;50.40;;;;;;5077915;28;20460;-68
2023/08/01 03:27:16;;;;;;;1.33;1.00;;;25.20;50.40;;;;;;5077924;28;20024;-68
2023/08/01 03:29:42;;;;;;;1.08;0.95;;;25.20;50.40;;;;;;5077402;28;20029;-71
2023/08/01 03:32:08;;;;;;;1.33;0.90;;;25.20;50.90;;;;;;5079351;28;20060;-71
2023/08/01 03:34:33;;;;;;;1.58;1.17;;;25.20;50.40;;;;;;5075902;28;20071;-71
2023/08/01 03:36:59;;;;;;;1.60;1.10;;;25.20;50.40;;;;;;5077806;28;20043;-70
2023/08/01 03:39:25;;;;;;;1.50;1.02;;;25.20;50.40;;;;;;5076889;28;20036;-70
2023/08/01 03:41:51;;;;;;;1.58;1.17;;;25.20;50.40;;;;;;5078293;28;20024;-71
2023/08/01 03:44:17;;;;;;;1.33;0.90;;;25.20;50.40;;;;;;5079013;28;20074;-71
2023/08/01 03:46:43;;;;;;;1.23;0.98;;;25.20;50.40;;;;;;5077485;28;20028;-70
2023/08/01 03:49:09;;;;;;;1.65;1.20;;;25.20;50.40;;;;;;5078236;28;20032;-69
2023/08/01 03:51:35;;;;;;;1.42;1.10;;;25.20;50.40;;;;;;5078767;28;20039;-69
2023/08/01 03:54:00;;;;;;;1.40;1.00;;;25.20;50.90;;;;;;5076969;28;20055;-70
2023/08/01 03:56:27;;;;;;;1.67;1.20;;;25.20;50.40;;;;;;5062907;28;20061;-70
2023/08/01 03:58:53;;;;;;;1.60;1.08;;;25.20;50.40;;;;;;5077221;28;20024;-70
2023/08/01 04:01:18;;;;;;;1.42;1.00;;;25.20;50.40;;;;;;5078296;28;20024;-66
2023/08/01 04:03:44;;;;;;;1.58;1.10;;;25.20;50.40;;;;;;5062816;28;20021;-68
2023/08/01 04:06:10;;;;;;;1.38;0.90;;;25.20;50.40;;;;;;5076928;28;20480;-70
2023/08/01 04:08:36;;;;;;;1.48;1.05;;;25.20;50.90;;;;;;5076057;28;20020;-69
2023/08/01 04:11:02;;;;;;;1.67;1.00;;;25.10;50.40;;;;;;5063869;28;20035;-69
2023/08/01 04:13:27;;;;;;;1.25;0.95;;;25.10;50.40;;;;;;5079280;28;20123;-70
2023/08/01 04:15:53;;;;;;;1.30;1.02;;;25.10;50.40;;;;;;5078839;28;20040;-69
2023/08/01 04:18:18;;;;;;;1.23;0.90;;;25.20;50.40;;;;;;5077484;28;20024;-70
2023/08/01 04:20:44;;;;;;;1.77;1.00;;;25.10;50.40;;;;;;5077985;28;20028;-70
2023/08/01 04:23:09;;;;;;;1.30;1.00;;;25.10;50.40;;;;;;5078037;28;20027;-70
2023/08/01 04:25:35;;;;;;;1.38;1.00;;;25.10;50.40;;;;;;5076057;28;20040;-69
2023/08/01 04:28:01;;;;;;;1.27;0.90;;;25.10;50.40;;;;;;5079031;28;20032;-70
2023/08/01 04:30:26;;;;;;;1.02;0.90;;;25.10;50.40;;;;;;5059004;28;20028;-68
2023/08/01 04:32:52;;;;;;;1.33;1.00;;;25.10;50.40;;;;;;5078238;28;20064;-67
2023/08/01 04:35:17;;;;;;;1.23;0.88;;;25.10;50.40;;;;;;5079027;28;20031;-68
2023/08/01 04:37:43;;;;;;;1.58;1.10;;;25.10;50.40;;;;;;5078126;28;20072;-68
2023/08/01 04:40:09;;;;;;;1.83;0.90;;;25.10;50.40;;;;;;5060082;28;20039;-68
2023/08/01 04:42:35;;;;;;;1.20;1.00;;;25.10;50.40;;;;;;5077680;28;20020;-67
2023/08/01 04:45:00;;;;;;;1.33;1.00;;;25.10;50.40;;;;;;5079544;28;20013;-67
2023/08/01 04:47:26;;;;;;;1.40;1.00;;;25.10;50.40;;;;;;5079091;28;20580;-68
2023/08/01 04:49:51;;;;;;;1.33;1.08;;;25.10;50.40;;;;;;5065897;28;20024;-69
2023/08/01 04:52:17;;;;;;;1.15;1.00;;;25.10;50.50;;;;;;5082484;28;20106;-68
2023/08/01 04:54:42;;;;;;;1.25;0.80;;;25.10;50.50;;;;;;5081714;28;20043;-67
2023/08/01 04:57:08;;;;;;;1.30;1.00;;;25.10;50.50;;;;;;5082022;28;20029;-67
2023/08/01 04:59:34;;;;;;;1.30;1.00;;;25.10;50.50;;;;;;5082800;28;20568;-67
2023/08/01 05:01:59;;;;;;;1.13;0.93;;;25.10;50.50;;;;;;5083284;28;20118;-68
2023/08/01 05:04:25;;;;;;;1.63;1.00;;;25.10;50.50;;;;;;5081801;28;20024;-68
2023/08/01 05:06:51;;;;;;;1.42;1.00;;;25.10;50.50;;;;;;5082999;28;20031;-68
2023/08/01 05:09:16;;;;;;;1.60;1.02;;;25.10;50.60;;;;;;5080639;28;20028;-69
2023/08/01 05:11:42;;;;;;;1.60;1.00;;;25.00;50.50;;;;;;5082878;28;20032;-65
2023/08/01 05:14:07;;;;;;;1.15;1.00;;;25.00;50.50;;;;;;5081956;28;20423;-65
2023/08/01 05:16:33;;;;;;;1.40;1.10;;;25.10;50.60;;;;;;5081494;28;20592;-64
2023/08/01 05:18:59;;;;;;;1.60;1.00;;;25.00;50.60;;;;;;5083207;28;20028;-64
2023/08/01 05:21:25;;;;;;;1.40;1.10;;;25.00;50.60;;;;;;5082900;28;20055;-64
2023/08/01 05:23:50;;;;;;;1.67;1.15;;;25.10;50.60;;;;;;5079372;28;20471;-63
2023/08/01 05:26:16;;;;;;;1.45;0.95;;;25.00;50.60;;;;;;5081587;28;20090;-64
2023/08/01 05:28:42;;;;;;;1.42;1.08;;;25.00;50.60;;;;;;5083184;28;20060;-63
2023/08/01 05:31:07;;;;;;;0.93;0.80;;;25.00;50.60;;;;;;5067292;28;20531;-64
2023/08/01 05:33:33;;;;;;;1.10;0.90;;;25.10;50.60;;;;;;5071954;28;20030;-63
2023/08/01 05:35:59;;;;;;;1.50;1.02;;;25.00;50.60;;;;;;5080561;28;20636;-66
2023/08/01 05:38:24;;;;;;;1.45;1.10;;;25.00;50.60;;;;;;5081122;28;20298;-66
2023/08/01 05:40:50;;;;;;;1.52;1.10;;;25.00;50.70;;;;;;5071357;28;20028;-64
2023/08/01 05:43:16;;;;;;;1.42;1.10;;;25.00;50.70;;;;;;5080367;28;20028;-69
2023/08/01 05:45:41;;;;;;;1.50;1.13;;;25.00;50.80;;;;;;5080407;28;20020;-69
2023/08/01 05:48:07;;;;;;;1.50;1.20;;;25.00;50.80;;;;;;5079303;28;20089;-69
2023/08/01 05:50:32;;;;;;;1.80;1.10;;;25.00;50.80;;;;;;5080976;28;20039;-69
2023/08/01 05:52:58;;;;;;;1.80;1.20;;;25.00;50.80;;;;;;5078256;28;20035;-68
2023/08/01 05:55:24;;;;;;;1.83;1.10;;;25.00;50.80;;;;;;5080234;28;20131;-70
2023/08/01 05:57:52;;;;;;;1.60;1.20;;;25.00;50.80;;;;;;5061935;28;20582;-69
2023/08/01 06:00:20;;;;;;;1.27;1.00;;;25.00;50.80;;;;;;5080878;28;20017;-68
2023/08/01 06:02:46;;;;;;;1.50;1.10;;;25.00;50.80;;;;;;5080602;28;20028;-69
2023/08/01 06:05:12;;;;;;;1.90;1.20;;;24.90;50.80;;;;;;5079471;28;20033;-69
2023/08/01 06:07:37;;;;;;;1.60;1.08;;;24.90;50.80;;;;;;5079818;28;20097;-69
2023/08/01 06:10:04;;;;;;;1.60;1.10;;;25.00;50.80;;;;;;5080402;28;20081;-69
2023/08/01 06:12:29;;;;;;;1.48;1.02;;;24.90;50.80;;;;;;5079403;28;20800;-69
2023/08/01 06:14:55;;;;;;;2.00;1.10;;;24.90;50.80;;;;;;5081289;28;20059;-69
2023/08/01 06:17:21;;;;;;;1.38;1.00;;;24.90;50.80;;;;;;5082003;28;20075;-68
2023/08/01 06:19:47;;;;;;;1.42;1.05;;;24.90;50.80;;;;;;5078741;28;20095;-68
2023/08/01 06:22:13;;;;;;;1.30;0.98;;;25.00;51.50;;;;;;5083082;28;20504;-68
2023/08/01 06:24:38;;;;;;;1.95;1.15;;;25.00;50.90;;;;;;5076126;28;20106;-69
2023/08/01 06:27:06;;;;;;;1.20;1.00;;;24.90;50.80;;;;;;5080737;28;20094;-69
2023/08/01 06:29:31;;;;;;;1.63;1.13;;;24.90;50.80;;;;;;5077432;28;20024;-69
2023/08/01 06:31:57;;;;;;;1.70;1.27;;;25.00;50.90;;;;;;5066527;28;20028;-70
2023/08/01 06:34:24;;;;;;;1.40;1.10;;;24.90;50.90;;;;;;5080626;28;20059;-69
2023/08/01 06:36:50;;;;;;;1.45;1.10;;;25.00;51.00;;;;;;5080292;28;20081;-69
2023/08/01 06:39:16;;;;;;;1.30;0.95;;;25.00;51.00;;;;;;5079330;28;20036;-69
2023/08/01 06:41:41;;;;;;;2.20;1.20;;;24.90;50.90;;;;;;5080564;28;20027;-70
2023/08/01 06:44:07;;;;;;;1.60;1.05;;;24.90;50.90;;;;;;5080061;28;20028;-70
2023/08/01 06:46:32;;;;;;;1.48;1.10;;;24.90;50.90;;;;;;5081100;28;20020;-69
2023/08/01 06:48:58;;;;;;;1.50;1.00;;;24.90;51.00;;;;;;5078543;28;20475;-69
2023/08/01 06:51:24;;;;;;;1.85;1.10;;;25.00;50.90;;;;;;5077843;28;20025;-70
2023/08/01 06:53:49;;;;;;;1.80;1.17;;;25.00;51.00;;;;;;5078953;28;20671;-64
2023/08/01 06:56:15;;;;;;;1.75;1.02;;;24.90;50.90;;;;;;5062188;28;20029;-64
2023/08/01 06:58:40;;;;;;;1.85;1.10;;;25.00;50.90;;;;;;5079564;28;20028;-64
2023/08/01 07:01:06;;;;;;;1.48;1.05;;;25.00;50.80;;;;;;5066435;28;20028;-65
2023/08/01 07:03:31;;;;;;;1.85;1.30;;;25.00;50.80;;;;;;5075332;28;20059;-64
2023/08/01 07:05:57;;;;;;;1.55;1.10;;;24.90;50.80;;;;;;5078161;28;20376;-64
2023/08/01 07:08:23;;;;;;;1.50;1.17;;;25.00;50.80;;;;;;5064623;28;20025;-66
2023/08/01 07:10:49;;;;;;;1.60;1.13;;;25.00;50.80;;;;;;5078804;28;20028;-64
2023/08/01 07:13:16;;;;;;;1.55;1.20;;;24.90;50.70;;;;;;5079144;28;20021;-65
2023/08/01 07:15:42;;;;;;;1.85;1.30;;;24.90;50.70;;;;;;5060533;28;20039;-63
2023/08/01 07:18:07;;;;;;;1.65;1.10;;;25.00;50.80;;;;;;5078895;28;20032;-64
2023/08/01 07:20:33;;;;;;;1.90;1.20;;;24.90;50.70;;;;;;5079031;28;20020;-64
2023/08/01 07:22:58;;;;;;;1.65;1.10;;;25.00;50.80;;;;;;5070366;28;20028;-65
2023/08/01 07:25:25;;;;;;;1.67;1.13;;;25.00;50.80;;;;;;5077918;28;20525;-65
2023/08/01 07:27:50;;;;;;;1.92;1.20;;;25.00;50.80;;;;;;5080308;28;20032;-64
2023/08/01 07:30:16;;;;;;;2.08;1.60;;;25.00;50.80;;;;;;5080495;28;20490;-65
2023/08/01 07:32:43;;;;;;;1.98;1.23;;;25.00;50.80;;;;;;5081457;28;20029;-68
2023/08/01 07:35:09;;;;;;;1.60;1.20;;;25.00;50.80;;;;;;5079014;28;20871;-68
2023/08/01 07:37:35;;;;;;;1.10;1.00;;;25.00;50.80;;;;;;5080812;28;20052;-68
2023/08/01 07:40:00;;;;;;;1.50;1.20;;;25.00;50.80;;;;;;5063164;28;20052;-68
2023/08/01 07:42:26;;;;;;;1.73;1.23;;;25.00;50.80;;;;;;5078538;28;20035;-68
2023/08/01 07:44:51;;;;;;;2.10;1.30;;;25.00;51.30;;;;;;5078567;28;20032;-68
2023/08/01 07:47:17;;;;;;;1.98;1.30;;;25.00;50.80;;;;;;5078948;28;20459;-68
2023/08/01 07:49:43;;;;;;;1.90;1.25;;;25.00;50.80;;;;;;5078389;28;20032;-68
2023/08/01 07:52:08;;;;;;;2.25;1.20;;;25.00;50.80;;;;;;5064788;28;20468;-68
2023/08/01 07:54:34;;;;;;;1.67;1.20;;;25.00;50.80;;;;;;5078967;28;20042;-70
2023/08/01 07:56:59;;;;;;;2.00;1.30;;;25.00;50.80;;;;;;5077176;28;20115;-70
2023/08/01 07:59:25;;;;;;;1.73;1.23;;;25.00;50.80;;;;;;5078203;28;20055;-69
2023/08/01 08:01:51;;;;;;;2.03;1.20;;;25.00;50.80;;;;;;5076858;28;20024;-70
2023/08/01 08:04:16;;;;;;;1.65;1.33;;;25.00;50.80;;;;;;5077118;28;20026;-69
2023/08/01 08:06:42;;;;;;;1.95;1.30;;;25.00;50.80;;;;;;5076419;28;20052;-69
2023/08/01 08:09:08;;;;;;;1.30;1.08;;;24.90;50.80;;;;;;5077415;28;20051;-70
2023/08/01 08:11:33;;;;;;;1.52;1.20;;;25.00;50.80;;;;;;5078817;28;20020;-70
2023/08/01 08:13:59;;;;;;;1.98;1.30;;;24.90;50.80;;;;;;5079488;28;20103;-71
2023/08/01 08:16:25;;;;;;;1.88;1.25;;;25.00;50.80;;;;;;5080014;28;20016;-70
2023/08/01 08:18:51;;;;;;;1.85;1.20;;;25.00;50.80;;;;;;5079879;28;20429;-71
2023/08/01 08:21:17;;;;;;;2.65;1.50;;;24.90;50.80;;;;;;5077829;28;20028;-70
2023/08/01 08:23:42;;;;;;;1.80;1.10;;;24.90;50.80;;;;;;5077315;28;20484;-69
2023/08/01 08:26:08;;;;;;;1.63;1.13;;;24.90;50.80;;;;;;5077257;28;20078;-68
2023/08/01 08:28:34;;;;;;;1.23;1.05;;;25.00;50.80;;;;;;5078395;28;20016;-68
2023/08/01 08:31:02;;;;;;;1.85;1.30;;;24.90;50.80;;;;;;5080124;28;20035;-69
2023/08/01 08:33:29;;;;;;;1.38;1.13;;;25.00;50.80;;;;;;5063686;28;20055;-69
2023/08/01 08:35:55;;;;;;;2.22;1.40;;;24.90;50.80;;;;;;5059525;28;20020;-68
2023/08/01 08:38:20;;;;;;;1.90;1.40;;;24.90;50.80;;;;;;5079136;28;20043;-68
2023/08/01 08:41:10;;;;;;;1.60;1.20;;;25.00;50.80;;;;;;5062570;28;20135;-69
2023/08/01 08:43:36;;;;;;;1.67;1.10;;;24.90;50.80;;;;;;5060915;28;20032;-68
2023/08/01 08:46:04;;;;;;;2.10;1.30;;;24.90;50.80;;;;;;5076534;28;20431;-68
2023/08/01 08:48:31;;;;;;;1.67;1.10;;;24.90;50.80;;;;;;5078789;28;20489;-68
2023/08/01 08:50:59;;;;;;;1.60;1.20;;;24.90;50.80;;;;;;5078871;28;20494;-68
2023/08/01 08:53:25;;;;;;;2.20;1.30;;;24.90;50.80;;;;;;5078691;28;20050;-68
2023/08/01 08:55:50;;;;;;;1.60;1.13;;;24.90;50.80;;;;;;5076808;28;20032;-68
2023/08/01 08:58:17;;;;;;;1.33;1.10;;;24.90;50.80;;;;;;5075449;28;20074;-68
2023/08/01 09:00:43;;;;;;;2.05;1.30;;;24.90;50.80;;;;;;5078939;28;20085;-68
2023/08/01 09:03:09;;;;;;;1.40;1.10;;;24.90;50.80;;;;;;5062731;28;20098;-69
2023/08/01 09:05:48;;;;;;;1.90;1.23;;;24.90;50.90;;;;;;5067543;28;20032;-68
2023/08/01 09:08:19;;;;;;;1.83;1.20;;;24.90;50.90;;;;;;5077220;28;20499;-68
2023/08/01 09:10:46;;;;;;;1.60;1.20;;;24.90;50.90;;;;;;5076030;28;20047;-69
2023/08/01 09:13:12;;;;;;;2.28;1.33;;;25.00;50.90;;;;;;5078227;28;20024;-71
2023/08/01 09:15:41;;;;;;;2.05;1.40;;;24.90;50.90;;;;;;5075819;28;20430;-70
2023/08/01 09:18:07;;;;;;;1.75;1.20;;;25.00;51.00;;;;;;5078055;28;20540;-71
2023/08/01 09:20:49;;;;;;;2.42;1.30;;;24.90;50.90;;;;;;5076757;28;20021;-70
2023/08/01 09:23:16;;;;;;;2.40;1.55;;;24.90;50.90;;;;;;5077681;28;20487;-70
2023/08/01 09:25:43;;;;;;;2.25;1.52;;;24.90;50.80;;;;;;5075128;28;20454;-70
2023/08/01 09:28:35;;;;;;;1.90;1.30;;;24.90;50.80;;;;;;5078866;28;20025;-70
2023/08/01 09:31:00;;;;;;;2.05;1.38;;;24.90;50.80;;;;;;5073131;28;20083;-70
2023/08/01 09:33:26;;;;;;;2.15;1.23;;;24.90;50.80;;;;;;5077594;28;20178;-71
2023/08/01 09:35:52;;;;;;;1.80;1.10;;;24.90;50.80;;;;;;5082046;28;20024;-71
2023/08/01 09:38:18;;;;;;;1.80;1.20;;;24.90;50.90;;;;;;5065697;28;20534;-70
2023/08/01 09:40:45;;;;;;;2.13;1.38;;;24.90;50.90;;;;;;5080823;28;20099;-70
2023/08/01 09:43:12;;;;;;;3.28;1.40;;;24.90;50.90;;;;;;5081085;28;20616;-71
2023/08/01 09:45:48;;;;;;;1.50;1.17;;;24.90;50.90;;;;;;5081297;28;20111;-71
2023/08/01 09:48:25;;;;;;;1.80;1.30;;;24.90;50.90;;;;;;5080265;28;20472;-71
2023/08/01 09:50:51;;;;;;;2.00;1.27;;;24.90;50.90;;;;;;5079721;28;20046;-70
2023/08/01 09:53:17;;;;;;;1.60;1.10;;;24.90;50.90;;;;;;5081563;28;20029;-68
2023/08/01 09:55:45;;;;;;;2.05;1.38;;;24.90;50.80;;;;;;5079280;28;20111;-68
2023/08/01 09:58:15;;;;;;;2.47;1.33;;;24.90;50.90;;;;;;5079115;28;20491;-68
2023/08/01 10:00:43;;;;;;;2.20;1.40;;;24.90;50.90;;;;;;5078808;28;20036;-68
2023/08/01 10:03:09;;;;;;;1.85;1.30;;;24.90;50.90;;;;;;5079582;28;20531;-68
2023/08/01 10:05:38;;;;;;;1.80;1.30;;;24.90;50.90;;;;;;5082844;28;20119;-68
2023/08/01 10:08:04;;;;;;;;;;;24.90;50.80;;;;;;5080541;28;20028;-68
2023/08/01 10:10:30;;;;;;;1.95;1.30;;;24.90;50.80;;;;;;5079788;28;19927;-68
2023/08/01 10:12:57;;;;;;;2.28;1.30;;;24.90;50.80;;;;;;5080006;28;20048;-65
2023/08/01 10:15:28;;;;;;;1.60;1.23;;;24.90;50.80;;;;;;5065774;28;20396;-65
2023/08/01 10:17:53;;;;;;;1.88;1.25;;;24.90;50.80;;;;;;5081333;28;20071;-64
2023/08/01 10:20:21;;;;;;;1.70;1.20;;;24.90;50.80;;;;;;5081828;28;20510;-65
2023/08/01 10:22:49;;;;;;;2.17;1.45;;;24.90;50.80;;;;;;5080501;28;20031;-68
2023/08/01 10:25:16;;;;;;;1.40;1.20;;;24.90;50.80;;;;;;5064567;28;20079;-68
2023/08/01 10:27:42;;;;;;;2.30;1.33;;;24.90;50.90;;;;;;5065438;28;20038;-68
2023/08/01 10:30:09;;;;;;;2.10;1.23;;;24.90;50.80;;;;;;5065146;28;20028;-68
2023/08/01 10:32:38;;;;;;;1.73;1.13;;;24.90;50.80;;;;;;5079685;28;20078;-68
2023/08/01 10:35:05;;;;;;;;;;;24.90;50.80;;;;;;5061586;28;20024;-68
2023/08/01 10:37:40;;;;;;;1.98;1.00;;;24.90;50.80;;;;;;5078973;28;19908;-68
2023/08/01 10:40:07;;;;;;;2.08;1.40;;;24.90;50.80;;;;;;5079257;28;20032;-68
2023/08/01 10:42:40;;;;;;;2.08;1.33;;;24.90;50.70;;;;;;5079361;28;20028;-68
2023/08/01 10:45:06;;;;;;;2.10;1.40;;;24.90;50.70;;;;;;5080753;28;20033;-68
2023/08/01 10:47:32;;;;;;;1.77;1.30;;;24.90;50.80;;;;;;5079750;28;20464;-68
2023/08/01 10:49:57;;;;;;;1.73;1.30;;;24.90;50.80;;;;;;5080661;28;20024;-68
2023/08/01 10:52:27;;;;;;;1.70;1.10;;;24.90;50.70;;;;;;5079108;28;20039;-69
2023/08/01 10:55:00;;;;;;;1.65;1.10;;;24.90;50.80;;;;;;5080261;28;20031;-68
2023/08/01 10:57:31;;;;;;;1.92;1.20;;;24.90;50.80;;;;;;5078565;28;20502;-68
2023/08/01 10:59:58;;;;;;;2.45;1.30;;;24.90;50.90;;;;;;5080644;28;20068;-68
2023/08/01 11:02:26;;;;;;;1.50;1.17;;;24.90;50.90;;;;;;5059862;28;20099;-70
2023/08/01 11:05:06;;;;;;;1.80;1.30;;;24.90;50.90;;;;;;5070622;28;20415;-71
2023/08/01 11:07:32;;;;;;;2.22;1.30;;;24.90;50.90;;;;;;5079116;28;20025;-70
2023/08/01 11:10:14;;;;;;;1.83;1.25;;;24.90;51.00;;;;;;5078894;28;20035;-70
2023/08/01 11:12:42;;;;;;;2.10;1.40;;;24.80;51.00;;;;;;5078906;28;20095;-70
2023/08/01 11:15:10;;;;;;;2.08;1.40;;;24.80;50.90;;;;;;5078384;28;20025;-70
2023/08/01 11:17:37;;;;;;;1.83;1.20;;;24.90;51.00;;;;;;5078289;28;20059;-71
2023/08/01 11:20:08;;;;;;;2.28;1.40;;;24.90;51.00;;;;;;5079125;28;20028;-70
2023/08/01 11:22:34;;;;;;;2.00;1.30;;;24.80;50.90;;;;;;5080031;28;20048;-64
2023/08/01 11:25:00;;;;;;;2.67;1.20;;;24.80;50.90;;;;;;5078950;28;20050;-65
2023/08/01 11:27:26;;;;;;;2.10;1.38;;;24.90;50.90;;;;;;5077919;28;20068;-65
2023/08/01 11:29:53;;;;;;;1.67;1.20;;;24.90;50.90;;;;;;5064609;28;20028;-63
2023/08/01 11:32:23;;;;;;;2.38;1.40;;;24.80;50.90;;;;;;5080157;28;20103;-66
2023/08/01 11:34:48;;;;;;;2.30;1.40;;;24.90;51.00;;;;;;5077973;28;20028;-67
2023/08/01 11:37:15;;;;;;;1.88;1.30;;;24.80;51.40;;;;;;5062876;28;20032;-64
2023/08/01 11:39:41;;;;;;;1.70;1.20;;;24.80;50.90;;;;;;5078708;28;20406;-67
2023/08/01 11:42:13;;;;;;;1.92;1.23;;;24.80;50.90;;;;;;5078056;28;20031;-65
2023/08/01 11:44:38;;;;;;;2.00;1.30;;;24.90;50.90;;;;;;5069972;28;20028;-63
2023/08/01 11:47:17;;;;;;;1.65;1.27;;;24.80;50.90;;;;;;5078470;28;20431;-66
2023/08/01 11:49:47;;;;;;;1.88;1.20;;;24.80;51.00;;;;;;5079756;28;20495;-64
2023/08/01 11:52:26;;;;;;;1.83;1.23;;;24.80;51.00;;;;;;5077027;28;20032;-65
2023/08/01 11:54:52;;;;;;;2.00;1.33;;;24.80;51.00;;;;;;5077793;28;20131;-66
2023/08/01 11:57:18;;;;;;;2.00;1.35;;;24.80;51.00;;;;;;5077580;28;20119;-66
2023/08/01 11:59:48;;;;;;;2.40;1.50;;;24.80;51.00;;;;;;5081135;28;20078;-65
2023/08/01 12:02:41;;;;;;;1.58;1.17;;;24.80;51.10;;;;;;5077129;28;20430;-66
2023/08/01 12:05:09;;;;;;;1.67;1.20;;;24.80;51.10;;;;;;5073481;28;20063;-66
2023/08/01 12:07:34;;;;;;;2.00;1.17;;;24.80;51.10;;;;;;5079705;28;20024;-66
2023/08/01 12:10:01;;;;;;;1.83;1.30;;;24.80;51.10;;;;;;5077557;28;20047;-65
2023/08/01 12:12:27;;;;;;;2.08;1.45;;;24.80;51.10;;;;;;5077886;28;20021;-70
2023/08/01 12:14:54;;;;;;;2.88;1.50;;;24.80;51.20;;;;;;5077474;28;20479;-70
2023/08/01 12:17:20;;;;;;;1.55;1.27;;;24.80;51.20;;;;;;5076916;28;20154;-69
2023/08/01 12:19:46;;;;;;;1.77;1.30;;;24.80;51.10;;;;;;5078080;28;20028;-71
2023/08/01 12:22:12;;;;;;;1.92;1.17;;;24.80;51.10;;;;;;5079425;28;20025;-70
2023/08/01 12:24:38;;;;;;;1.77;1.10;;;24.80;51.10;;;;;;5078224;28;20031;-70
2023/08/01 12:27:08;;;;;;;1.85;1.17;;;24.80;51.10;;;;;;5078544;28;20025;-70
2023/08/01 12:29:34;;;;;;;1.45;1.05;;;24.80;51.10;;;;;;5077605;28;20062;-69
2023/08/01 12:32:01;;;;;;;2.10;1.30;;;24.80;51.00;;;;;;5067147;28;20056;-67
2023/08/01 12:34:36;;;;;;;1.98;1.17;;;24.80;51.10;;;;;;5077599;28;20110;-69
2023/08/01 12:37:01;;;;;;;2.05;1.40;;;24.80;51.10;;;;;;5078762;28;20039;-69
2023/08/01 12:39:27;;;;;;;1.42;1.10;;;24.80;51.00;;;;;;5077482;28;20374;-69
2023/08/01 12:41:53;;;;;;;1.38;1.15;;;24.80;51.00;;;;;;5079381;28;20029;-69
2023/08/01 12:44:20;;;;;;;1.92;1.38;;;24.80;51.10;;;;;;5064898;28;20115;-68